createdAt,value
2022-10-28T00:01:05.234Z,24.80
2022-10-28T00:03:33.407Z,25.70
2022-10-28T00:06:18.075Z,25.10
2022-10-28T00:08:45.491Z,24.80
2022-10-28T00:11:22.507Z,25.80
2022-10-28T00:13:51.319Z,25.10
2022-10-28T00:16:21.625Z,23.90
2022-10-28T00:18:50.704Z,25.30
2022-10-28T00:21:19.771Z,26.90
2022-10-28T00:23:47.469Z,22.60
2022-10-28T00:26:23.618Z,22.80
2022-10-28T00:28:59.099Z,24.30
2022-10-28T00:31:28.647Z,25.90
2022-10-28T00:33:56.647Z,26.80
2022-10-28T00:36:29.273Z,27.40
2022-10-28T00:38:57.350Z,26.10
2022-10-28T00:41:34.587Z,29.10
2022-10-28T00:44:23.541Z,22.60
2022-10-28T00:46:53.590Z,23.70
2022-10-28T00:49:39.149Z,24.80
2022-10-28T00:52:10.243Z,23.50
2022-10-28T00:54:38.448Z,23.20
2022-10-28T00:57:10.316Z,27.50
2022-10-28T00:59:40.329Z,21.80
2022-10-28T01:02:07.937Z,24.00
2022-10-28T01:04:35.449Z,21.20
2022-10-28T01:07:03.229Z,21.00
2022-10-28T01:09:30.471Z,23.10
2022-10-28T01:12:00.499Z,24.40
2022-10-28T01:14:47.730Z,27.30
2022-10-28T01:17:55.293Z,25.30
2022-10-28T01:20:30.550Z,24.40
2022-10-28T01:23:40.700Z,27.30
2022-10-28T01:26:24.427Z,22.90
2022-10-28T01:29:07.032Z,21.00
2022-10-28T01:31:51.707Z,25.40
2022-10-28T01:34:40.375Z,24.70
2022-10-28T01:37:17.648Z,25.10
2022-10-28T01:39:51.032Z,23.00
2022-10-28T01:42:30.338Z,29.80
2022-10-28T01:45:09.703Z,22.90
2022-10-28T01:47:48.233Z,24.00
2022-10-28T01:50:22.873Z,25.30
2022-10-28T01:52:51.295Z,24.40
2022-10-28T01:55:23.534Z,20.70
2022-10-28T01:57:52.088Z,24.50
2022-10-28T02:00:20.047Z,24.00
2022-10-28T02:02:49.148Z,20.20
2022-10-28T02:05:39.334Z,26.60
2022-10-28T02:08:18.671Z,20.20
2022-10-28T02:11:27.608Z,24.70
2022-10-28T02:14:00.689Z,24.40
2022-10-28T02:16:49.147Z,26.20
2022-10-28T02:19:34.829Z,26.50
2022-10-28T02:22:04.850Z,23.80
2022-10-28T02:24:48.269Z,25.30
2022-10-28T02:27:33.749Z,24.30
2022-10-28T02:30:24.448Z,24.50
2022-10-28T02:32:57.127Z,26.00
2022-10-28T02:35:52.029Z,22.50
2022-10-28T02:38:25.926Z,22.80
2022-10-28T02:40:56.560Z,25.30
2022-10-28T02:43:25.670Z,21.00
2022-10-28T02:45:57.413Z,25.00
2022-10-28T02:49:12.709Z,25.00
2022-10-28T02:51:55.710Z,24.20
2022-10-28T02:54:26.798Z,21.80
2022-10-28T02:57:18.780Z,27.40
2022-10-28T02:59:57.209Z,24.00
2022-10-28T03:02:25.270Z,23.40
2022-10-28T03:04:53.972Z,29.10
2022-10-28T03:07:21.449Z,27.40
2022-10-28T03:09:48.763Z,28.20
2022-10-28T03:12:16.132Z,29.90
2022-10-28T03:14:43.403Z,28.10
2022-10-28T03:17:10.653Z,29.40
2022-10-28T03:19:38.079Z,30.80
2022-10-28T03:22:06.253Z,32.20
2022-10-28T03:24:33.372Z,29.80
2022-10-28T03:27:00.667Z,29.90
2022-10-28T03:29:27.930Z,28.60
2022-10-28T03:31:56.395Z,27.80
2022-10-28T03:34:23.970Z,30.10
2022-10-28T03:36:51.425Z,26.20
2022-10-28T03:39:18.757Z,30.50
2022-10-28T03:41:46.130Z,28.90
2022-10-28T03:44:13.469Z,26.10
2022-10-28T03:46:40.932Z,25.40
2022-10-28T03:49:08.068Z,27.10
2022-10-28T03:51:35.236Z,29.50
2022-10-28T03:54:02.788Z,25.00
2022-10-28T03:56:29.828Z,28.30
2022-10-28T03:58:56.980Z,26.20
2022-10-28T04:01:24.339Z,26.80
2022-10-28T04:03:51.586Z,27.30
2022-10-28T04:06:19.251Z,23.20
2022-10-28T04:08:46.727Z,26.70
2022-10-28T04:11:14.168Z,27.40
2022-10-28T04:13:41.429Z,26.50
2022-10-28T04:16:08.780Z,26.60
2022-10-28T04:18:36.252Z,27.00
2022-10-28T04:21:04.533Z,27.40
2022-10-28T04:23:31.966Z,23.50
2022-10-28T04:25:59.104Z,23.50
2022-10-28T04:28:26.572Z,23.90
2022-10-28T04:30:55.071Z,28.10
2022-10-28T04:33:22.294Z,24.20
2022-10-28T04:35:49.467Z,25.10
2022-10-28T04:38:16.866Z,21.50
2022-10-28T04:40:44.369Z,24.00
2022-10-28T04:43:12.346Z,25.70
2022-10-28T04:45:40.018Z,25.60
2022-10-28T04:48:07.974Z,23.50
2022-10-28T04:50:35.223Z,25.00
2022-10-28T04:53:02.767Z,21.00
2022-10-28T04:55:30.029Z,24.60
2022-10-28T04:57:59.116Z,20.90
2022-10-28T05:00:27.587Z,21.30
2022-10-28T05:02:55.298Z,24.60
2022-10-28T05:05:23.421Z,25.50
2022-10-28T05:07:50.946Z,24.20
2022-10-28T05:10:18.570Z,23.30
2022-10-28T05:12:46.316Z,22.70
2022-10-28T05:15:14.977Z,23.50
2022-10-28T05:17:44.828Z,23.50
2022-10-28T05:20:13.126Z,19.80
2022-10-28T05:22:54.125Z,20.50
2022-10-28T05:25:22.536Z,23.70
2022-10-28T05:27:49.892Z,20.50
2022-10-28T05:30:18.729Z,21.50
2022-10-28T05:32:48.368Z,20.20
2022-10-28T05:35:17.585Z,24.20
2022-10-28T05:37:44.745Z,24.70
2022-10-28T05:40:12.609Z,22.20
2022-10-28T05:42:43.869Z,23.10
2022-10-28T05:45:12.429Z,20.20
2022-10-28T05:47:49.125Z,21.60
2022-10-28T05:50:18.796Z,24.00
2022-10-28T05:52:50.490Z,21.80
2022-10-28T05:55:22.403Z,25.00
2022-10-28T05:57:51.789Z,21.80
2022-10-28T06:00:21.235Z,19.60
2022-10-28T06:02:48.486Z,22.80
2022-10-28T06:05:16.691Z,22.00
2022-10-28T06:07:44.249Z,24.10
2022-10-28T06:10:12.366Z,24.70
2022-10-28T06:12:38.134Z,18.90
2022-10-28T06:15:06.489Z,22.40
2022-10-28T06:17:33.979Z,23.40
2022-10-28T06:20:02.269Z,22.10
2022-10-28T06:22:29.739Z,21.60
2022-10-28T06:24:56.864Z,22.70
2022-10-28T06:27:24.201Z,28.60
2022-10-28T06:29:51.467Z,22.60
2022-10-28T06:32:18.818Z,23.70
2022-10-28T06:34:46.041Z,20.20
2022-10-28T06:37:13.336Z,19.30
2022-10-28T06:39:42.513Z,19.70
2022-10-28T06:42:09.663Z,23.30
2022-10-28T06:44:36.932Z,25.50
2022-10-28T06:47:06.200Z,23.20
2022-10-28T06:49:34.342Z,23.00
2022-10-28T06:52:02.269Z,21.20
2022-10-28T06:54:29.806Z,23.00
2022-10-28T06:56:57.165Z,21.90
2022-10-28T06:59:24.948Z,21.60
2022-10-28T07:01:52.567Z,21.30
2022-10-28T07:04:19.949Z,18.80
2022-10-28T07:06:49.810Z,18.60
2022-10-28T07:09:19.180Z,20.70
2022-10-28T07:11:53.589Z,21.40
2022-10-28T07:14:22.271Z,21.30
2022-10-28T07:16:49.831Z,23.50
2022-10-28T07:19:20.284Z,20.70
2022-10-28T07:21:50.403Z,21.30
2022-10-28T07:24:18.129Z,21.10
2022-10-28T07:26:52.019Z,20.70
2022-10-28T07:29:22.486Z,25.10
2022-10-28T07:31:49.751Z,21.80
2022-10-28T07:34:17.540Z,19.90
2022-10-28T07:36:44.773Z,22.30
2022-10-28T07:39:12.114Z,17.50
2022-10-28T07:41:39.374Z,19.10
2022-10-28T07:44:07.229Z,18.80
2022-10-28T07:46:34.890Z,18.50
2022-10-28T07:49:02.052Z,19.40
2022-10-28T07:51:29.291Z,15.30
2022-10-28T07:53:58.082Z,16.20
2022-10-28T07:56:25.949Z,13.70
2022-10-28T07:58:53.705Z,13.70
2022-10-28T08:01:22.299Z,14.00
2022-10-28T08:03:49.533Z,15.10
2022-10-28T08:06:19.824Z,14.00
2022-10-28T08:08:55.852Z,14.70
2022-10-28T08:11:24.486Z,14.80
2022-10-28T08:13:52.969Z,13.30
2022-10-28T08:16:20.406Z,13.30
2022-10-28T08:18:47.655Z,13.80
2022-10-28T08:21:15.432Z,13.90
2022-10-28T08:23:47.102Z,12.40
2022-10-28T08:26:16.374Z,12.00
2022-10-28T08:28:43.936Z,13.10
2022-10-28T08:31:12.925Z,14.80
2022-10-28T08:33:43.075Z,11.10
2022-10-28T08:36:13.297Z,10.20
2022-10-28T08:38:45.108Z,8.70
2022-10-28T08:41:36.346Z,10.90
2022-10-28T08:44:31.651Z,10.40
2022-10-28T08:47:08.130Z,9.50
2022-10-28T08:49:37.999Z,10.90
2022-10-28T08:52:34.779Z,9.30
2022-10-28T08:55:03.779Z,11.40
2022-10-28T08:58:08.402Z,10.10
2022-10-28T09:00:37.005Z,8.90
2022-10-28T09:03:13.478Z,10.60
2022-10-28T09:05:43.064Z,8.20
2022-10-28T09:08:30.766Z,10.90
2022-10-28T09:11:26.386Z,9.80
2022-10-28T09:14:01.868Z,13.30
2022-10-28T09:17:02.013Z,8.80
2022-10-28T09:19:35.483Z,9.70
2022-10-28T09:22:25.764Z,8.90
2022-10-28T09:25:22.923Z,8.50
2022-10-28T09:28:17.255Z,8.80
2022-10-28T09:31:17.937Z,7.10
2022-10-28T09:34:08.542Z,8.00
2022-10-28T09:36:41.124Z,9.90
2022-10-28T09:39:17.265Z,7.30
2022-10-28T09:41:45.752Z,8.50
2022-10-28T09:44:24.375Z,7.70
2022-10-28T09:46:55.757Z,7.50
2022-10-28T09:49:27.091Z,10.40
2022-10-28T09:52:08.060Z,9.30
2022-10-28T09:54:43.197Z,6.90
2022-10-28T09:57:14.955Z,7.50
2022-10-28T09:59:46.085Z,7.20
2022-10-28T10:02:33.492Z,8.00
2022-10-28T10:05:02.496Z,7.30
2022-10-28T10:07:35.972Z,7.10
2022-10-28T10:10:07.070Z,6.80
2022-10-28T10:12:34.493Z,9.30
2022-10-28T10:15:03.494Z,9.70
2022-10-28T10:17:36.413Z,7.90
2022-10-28T10:20:07.308Z,6.90
2022-10-28T10:22:46.313Z,8.00
2022-10-28T10:25:19.452Z,7.40
2022-10-28T10:27:55.854Z,6.90
2022-10-28T10:30:30.638Z,7.60
2022-10-28T10:32:59.273Z,7.10
2022-10-28T10:35:32.021Z,9.40
2022-10-28T10:38:01.965Z,7.40
2022-10-28T10:40:35.191Z,8.80
2022-10-28T10:43:17.813Z,7.50
2022-10-28T10:46:24.990Z,6.80
2022-10-28T10:49:08.329Z,7.50
2022-10-28T10:51:37.497Z,6.20
2022-10-28T10:54:12.995Z,11.20
2022-10-28T10:56:40.534Z,7.90
2022-10-28T10:59:20.056Z,7.20
2022-10-28T11:01:48.926Z,6.60
2022-10-28T11:04:18.707Z,8.20
2022-10-28T11:06:57.295Z,8.90
2022-10-28T11:09:27.392Z,7.30
2022-10-28T11:11:56.125Z,6.60
2022-10-28T11:14:26.892Z,8.10
2022-10-28T11:16:58.900Z,7.40
2022-10-28T11:19:38.299Z,9.60
2022-10-28T11:22:20.125Z,10.80
2022-10-28T11:24:51.876Z,8.60
2022-10-28T11:27:55.544Z,7.60
2022-10-28T11:30:43.117Z,7.60
2022-10-28T11:33:35.602Z,7.70
2022-10-28T11:36:26.055Z,7.70
2022-10-28T11:39:06.612Z,12.20
2022-10-28T11:41:46.172Z,6.80
2022-10-28T11:44:20.881Z,8.20
2022-10-28T11:47:05.838Z,9.30
2022-10-28T11:49:36.180Z,8.20
2022-10-28T11:52:15.222Z,10.70
2022-10-28T11:55:17.868Z,8.00
2022-10-28T11:58:01.212Z,7.60
2022-10-28T12:00:38.515Z,7.00
2022-10-28T12:03:28.573Z,6.90
2022-10-28T12:06:01.360Z,7.40
2022-10-28T12:08:53.532Z,7.30
2022-10-28T12:11:26.814Z,6.50
2022-10-28T12:14:19.789Z,6.50
2022-10-28T12:17:18.843Z,7.50
2022-10-28T12:20:00.757Z,6.90
2022-10-28T12:22:32.291Z,7.50
2022-10-28T12:25:04.221Z,7.20
2022-10-28T12:27:36.181Z,8.50
2022-10-28T12:30:16.841Z,7.30
2022-10-28T12:32:45.078Z,7.40
2022-10-28T12:35:22.697Z,7.60
2022-10-28T12:37:59.530Z,8.50
2022-10-28T12:40:30.104Z,8.60
2022-10-28T12:43:01.609Z,6.30
2022-10-28T12:45:29.984Z,7.50
2022-10-28T12:48:34.737Z,6.90
2022-10-28T12:51:19.088Z,8.80
2022-10-28T12:53:59.950Z,5.70
2022-10-28T12:56:33.912Z,7.90
2022-10-28T12:59:18.417Z,10.30
2022-10-28T13:01:48.296Z,8.80
2022-10-28T13:04:16.216Z,9.30
2022-10-28T13:07:06.273Z,8.40
2022-10-28T13:10:09.636Z,9.10
2022-10-28T13:12:42.715Z,6.50
2022-10-28T13:15:34.296Z,8.40
2022-10-28T13:18:08.516Z,7.20
2022-10-28T13:20:58.713Z,9.40
2022-10-28T13:24:07.335Z,8.10
2022-10-28T13:26:36.596Z,8.40
2022-10-28T13:29:08.198Z,7.70
2022-10-28T13:31:46.295Z,9.30
2022-10-28T13:34:16.065Z,7.00
2022-10-28T13:36:46.471Z,8.80
2022-10-28T13:39:28.925Z,6.80
2022-10-28T13:42:16.067Z,8.40
2022-10-28T13:44:49.424Z,10.30
2022-10-28T13:47:35.839Z,7.70
2022-10-28T13:50:08.124Z,9.10
2022-10-28T13:52:40.268Z,8.40
2022-10-28T13:55:16.737Z,9.80
2022-10-28T13:57:45.542Z,8.60
2022-10-28T14:00:19.142Z,9.30
2022-10-28T14:02:58.118Z,9.60
2022-10-28T14:05:45.914Z,7.60
2022-10-28T14:08:21.233Z,6.20
2022-10-28T14:11:06.207Z,8.00
2022-10-28T14:13:37.957Z,9.20
2022-10-28T14:16:25.063Z,8.70
2022-10-28T14:19:06.245Z,9.00
2022-10-28T14:22:03.769Z,5.80
2022-10-28T14:24:34.617Z,7.80
2022-10-28T14:27:12.572Z,6.50
2022-10-28T14:29:50.769Z,8.80
2022-10-28T14:32:33.469Z,13.40
2022-10-28T14:35:15.984Z,10.50
2022-10-28T14:38:08.314Z,9.90
2022-10-28T14:40:55.327Z,10.20
2022-10-28T14:43:35.284Z,8.70
2022-10-28T14:46:48.541Z,7.90
2022-10-28T14:49:22.515Z,7.00
2022-10-28T14:51:50.702Z,6.90
2022-10-28T14:54:40.625Z,9.50
2022-10-28T14:57:08.742Z,7.90
2022-10-28T14:59:43.242Z,11.70
2022-10-28T15:02:17.891Z,10.50
2022-10-28T15:04:47.085Z,12.70
2022-10-28T15:07:19.268Z,9.60
2022-10-28T15:09:53.659Z,13.80
2022-10-28T15:12:22.883Z,8.20
2022-10-28T15:14:52.540Z,9.10
2022-10-28T15:17:21.282Z,8.40
2022-10-28T15:19:52.024Z,6.80
2022-10-28T15:22:31.610Z,8.30
2022-10-28T15:25:01.162Z,9.00
2022-10-28T15:27:30.855Z,8.20
2022-10-28T15:29:58.414Z,9.90
2022-10-28T15:32:34.270Z,8.70
2022-10-28T15:35:38.490Z,9.70
2022-10-28T15:38:29.501Z,10.90
2022-10-28T15:40:57.582Z,8.80
2022-10-28T15:43:30.751Z,8.90
2022-10-28T15:46:11.107Z,10.40
2022-10-28T15:48:38.682Z,10.20
2022-10-28T15:51:17.824Z,11.00
2022-10-28T15:53:46.492Z,7.20
2022-10-28T15:56:18.838Z,9.60
2022-10-28T15:58:50.192Z,9.00
2022-10-28T16:01:36.032Z,7.20
2022-10-28T16:04:03.579Z,8.00
2022-10-28T16:06:35.638Z,10.70
2022-10-28T16:09:06.636Z,11.40
2022-10-28T16:11:36.858Z,9.00
2022-10-28T16:14:26.831Z,11.30
2022-10-28T16:16:54.655Z,8.60
2022-10-28T16:19:29.888Z,11.40
2022-10-28T16:21:57.137Z,8.20
2022-10-28T16:24:25.517Z,8.00
2022-10-28T16:26:52.835Z,8.60
2022-10-28T16:29:21.552Z,10.10
2022-10-28T16:31:51.378Z,10.90
2022-10-28T16:34:18.809Z,8.50
2022-10-28T16:36:46.378Z,10.40
2022-10-28T16:39:14.233Z,9.10
2022-10-28T16:41:41.898Z,11.60
2022-10-28T16:44:28.317Z,12.90
2022-10-28T16:46:55.655Z,10.30
2022-10-28T16:49:23.208Z,15.60
2022-10-28T16:51:52.218Z,9.90
2022-10-28T16:54:19.778Z,13.70
2022-10-28T16:56:47.539Z,14.40
2022-10-28T16:59:15.940Z,11.20
2022-10-28T17:01:43.916Z,10.60
2022-10-28T17:04:11.676Z,10.80
2022-10-28T17:06:39.611Z,13.20
2022-10-28T17:09:06.870Z,12.00
2022-10-28T17:11:34.926Z,11.10
2022-10-28T17:14:03.115Z,12.00
2022-10-28T17:16:30.278Z,14.10
2022-10-28T17:18:57.722Z,13.60
2022-10-28T17:21:26.604Z,12.80
2022-10-28T17:23:54.680Z,15.90
2022-10-28T17:26:22.021Z,14.30
2022-10-28T17:28:53.114Z,15.30
2022-10-28T17:31:24.762Z,16.70
2022-10-28T17:33:56.664Z,14.10
2022-10-28T17:36:24.371Z,15.40
2022-10-28T17:38:52.939Z,13.60
2022-10-28T17:41:21.200Z,14.00
2022-10-28T17:43:53.699Z,15.40
2022-10-28T17:46:21.678Z,13.00
2022-10-28T17:48:49.739Z,12.90
2022-10-28T17:51:21.680Z,14.00
2022-10-28T17:53:56.345Z,12.10
2022-10-28T17:56:24.492Z,12.00
2022-10-28T17:58:55.659Z,13.50
2022-10-28T18:01:24.717Z,12.20
2022-10-28T18:03:52.295Z,13.80
2022-10-28T18:06:19.903Z,11.90
2022-10-28T18:08:47.903Z,15.00
2022-10-28T18:11:17.539Z,12.60
2022-10-28T18:13:46.200Z,15.30
2022-10-28T18:16:20.147Z,18.50
2022-10-28T18:18:48.074Z,17.10
2022-10-28T18:21:16.583Z,14.40
2022-10-28T18:23:44.241Z,15.10
2022-10-28T18:26:14.064Z,15.00
2022-10-28T18:28:44.910Z,20.10
2022-10-28T18:31:17.655Z,19.50
2022-10-28T18:33:45.519Z,15.60
2022-10-28T18:36:15.583Z,20.20
2022-10-28T18:38:44.217Z,18.80
2022-10-28T18:41:13.882Z,14.90
2022-10-28T18:43:42.640Z,16.70
2022-10-28T18:46:10.439Z,17.30
2022-10-28T18:48:42.143Z,16.90
2022-10-28T18:51:12.254Z,16.10
2022-10-28T18:53:45.138Z,19.40
2022-10-28T18:56:15.503Z,15.80
2022-10-28T18:58:43.945Z,21.30
2022-10-28T19:01:22.425Z,14.00
2022-10-28T19:03:58.064Z,17.20
2022-10-28T19:06:30.126Z,17.40
2022-10-28T19:09:00.592Z,16.00
2022-10-28T19:11:31.871Z,15.70
2022-10-28T19:14:03.359Z,18.30
2022-10-28T19:16:33.809Z,15.40
2022-10-28T19:19:03.491Z,18.30
2022-10-28T19:21:32.264Z,18.20
2022-10-28T19:23:59.586Z,19.10
2022-10-28T19:26:27.366Z,13.80
2022-10-28T19:28:54.919Z,15.60
2022-10-28T19:31:24.824Z,15.50
2022-10-28T19:33:57.459Z,16.10
2022-10-28T19:36:29.623Z,16.40
2022-10-28T19:38:58.549Z,23.70
2022-10-28T19:41:30.123Z,41.10
2022-10-28T19:43:59.762Z,63.30
2022-10-28T19:46:29.439Z,49.90
2022-10-28T19:49:00.809Z,59.20
2022-10-28T19:51:30.473Z,44.10
2022-10-28T19:53:59.830Z,32.00
2022-10-28T19:56:28.885Z,32.10
2022-10-28T19:59:00.721Z,30.30
2022-10-28T20:01:31.987Z,26.60
2022-10-28T20:03:59.835Z,25.30
2022-10-28T20:06:32.619Z,19.70
2022-10-28T20:08:59.974Z,19.20
2022-10-28T20:11:34.592Z,16.10
2022-10-28T20:14:08.960Z,20.40
2022-10-28T20:16:37.221Z,20.00
2022-10-28T20:19:05.868Z,24.00
2022-10-28T20:21:34.281Z,24.40
2022-10-28T20:24:03.000Z,18.00
2022-10-28T20:26:33.213Z,20.00
2022-10-28T20:29:03.379Z,22.80
2022-10-28T20:31:32.295Z,23.50
2022-10-28T20:34:02.008Z,25.70
2022-10-28T20:36:37.437Z,21.70
2022-10-28T20:39:13.848Z,21.30
2022-10-28T20:41:43.685Z,25.10
2022-10-28T20:44:11.411Z,25.20
2022-10-28T20:46:39.646Z,23.70
2022-10-28T20:49:09.359Z,23.70
2022-10-28T20:51:37.546Z,25.80
2022-10-28T20:54:05.520Z,24.30
2022-10-28T20:56:35.618Z,20.30
2022-10-28T20:59:02.809Z,19.60
2022-10-28T21:01:32.527Z,21.00
2022-10-28T21:04:02.478Z,19.60
2022-10-28T21:06:30.477Z,20.50
2022-10-28T21:08:58.322Z,21.40
2022-10-28T21:11:26.619Z,19.00
2022-10-28T21:13:57.633Z,17.80
2022-10-28T21:16:26.373Z,20.40
2022-10-28T21:18:54.098Z,20.70
2022-10-28T21:21:23.062Z,18.90
2022-10-28T21:23:50.643Z,17.60
2022-10-28T21:26:18.197Z,18.90
2022-10-28T21:28:49.690Z,18.50
2022-10-28T21:31:18.536Z,18.30
2022-10-28T21:33:46.629Z,19.30
2022-10-28T21:36:19.418Z,18.40
2022-10-28T21:38:46.740Z,17.30
2022-10-28T21:41:19.118Z,18.40
2022-10-28T21:43:48.617Z,18.20
2022-10-28T21:46:16.815Z,19.30
2022-10-28T21:48:44.262Z,19.50
2022-10-28T21:51:14.821Z,16.20
2022-10-28T21:53:44.029Z,13.40
2022-10-28T21:56:19.419Z,15.50
2022-10-28T21:58:48.699Z,18.30
2022-10-28T22:01:19.595Z,17.80
2022-10-28T22:03:47.082Z,19.00
2022-10-28T22:06:15.006Z,18.00
2022-10-28T22:08:42.346Z,17.00
2022-10-28T22:11:15.403Z,14.40
2022-10-28T22:13:42.948Z,14.30
2022-10-28T22:16:17.631Z,14.50
2022-10-28T22:18:45.482Z,14.70
2022-10-28T22:21:14.582Z,13.50
2022-10-28T22:23:42.827Z,17.00
2022-10-28T22:26:16.363Z,18.20
2022-10-28T22:28:43.901Z,16.90
2022-10-28T22:31:14.860Z,15.10
2022-10-28T22:33:42.400Z,12.50
2022-10-28T22:36:20.441Z,18.20
2022-10-28T22:38:48.478Z,16.30
2022-10-28T22:41:23.219Z,17.00
2022-10-28T22:43:55.380Z,17.30
2022-10-28T22:46:24.147Z,14.30
2022-10-28T22:48:51.417Z,13.50
2022-10-28T22:51:19.080Z,12.00
2022-10-28T22:53:46.661Z,13.00
2022-10-28T22:56:20.769Z,13.50
2022-10-28T22:58:49.339Z,17.60
2022-10-28T23:01:19.472Z,13.40
2022-10-28T23:03:48.818Z,13.40
2022-10-28T23:06:17.909Z,12.50
2022-10-28T23:08:45.810Z,12.40
2022-10-28T23:11:14.042Z,13.00
2022-10-28T23:13:41.467Z,12.60
2022-10-28T23:16:11.267Z,12.80
2022-10-28T23:18:38.918Z,15.20
2022-10-28T23:21:25.687Z,14.50
2022-10-28T23:23:54.538Z,13.30
2022-10-28T23:26:22.284Z,12.60
2022-10-28T23:28:54.349Z,12.90
2022-10-28T23:31:22.540Z,18.00
2022-10-28T23:33:51.518Z,14.90
2022-10-28T23:36:18.786Z,17.10
2022-10-28T23:38:46.033Z,14.90
2022-10-28T23:41:16.463Z,15.40
2022-10-28T23:43:44.020Z,13.30
2022-10-28T23:46:11.655Z,15.00
2022-10-28T23:48:40.363Z,14.90
2022-10-28T23:51:07.720Z,12.10
2022-10-28T23:53:35.382Z,14.20
2022-10-28T23:56:02.623Z,15.10
2022-10-28T23:58:30.081Z,11.00
